Time;durP1;ratioP1;P1;durP2;ratioP2;P2;SDS_P1;SDS_P2;PMS_P1;PMS_P2;Temp;Humidity;BMP_temperature;BMP_pressure;BME280_temperature;BME280_humidity;BME280_pressure;Samples;Min_cycle;Max_cycle;Signal;HPM_P1;HPM_P2
2023/12/14 00:01:26;;;;;;;87.70;47.88;;;;;;;;;;6147182;23;20318;-72
2023/12/14 00:03:52;;;;;;;72.85;43.30;;;;;;;;;;6146820;23;20276;-71
2023/12/14 00:06:18;;;;;;;85.95;46.25;;;;;;;;;;6147162;23;20018;-71
2023/12/14 00:08:43;;;;;;;89.25;44.83;;;;;;;;;;6147066;23;20056;-72
2023/12/14 00:11:11;;;;;;;88.68;45.38;;;;;;;;;;6147271;23;20470;-71
2023/12/14 00:13:37;;;;;;;77.88;43.55;;;;;;;;;;6146372;23;20021;-72
2023/12/14 00:16:04;;;;;;;88.22;45.63;;;;;;;;;;6145732;23;20021;-71
2023/12/14 00:18:30;;;;;;;80.93;44.80;;;;;;;;;;6146130;23;20033;-71
2023/12/14 00:20:56;;;;;;;79.80;43.42;;;;;;;;;;6147289;23;20040;-71
2023/12/14 00:23:22;;;;;;;76.13;42.42;;;;;;;;;;6146418;23;20009;-71
2023/12/14 00:25:49;;;;;;;88.75;47.60;;;;;;;;;;6119941;23;20013;-71
2023/12/14 00:28:15;;;;;;;77.35;46.08;;;;;;;;;;6147224;23;20064;-71
2023/12/14 00:30:40;;;;;;;94.53;49.10;;;;;;;;;;6147350;23;20021;-71
2023/12/14 00:33:07;;;;;;;89.97;46.55;;;;;;;;;;6145644;23;20084;-71
2023/12/14 00:35:33;;;;;;;83.85;46.67;;;;;;;;;;6145940;23;20029;-71
2023/12/14 00:37:59;;;;;;;86.15;45.97;;;;;;;;;;6147071;23;20045;-71
2023/12/14 00:40:25;;;;;;;102.10;52.40;;;;;;;;;;6146982;23;20009;-71
2023/12/14 00:42:50;;;;;;;103.45;52.42;;;;;;;;;;6146882;23;20506;-71
2023/12/14 00:45:16;;;;;;;98.07;51.80;;;;;;;;;;6147087;23;20310;-70
2023/12/14 00:47:42;;;;;;;92.97;49.08;;;;;;;;;;6147304;23;20403;-71
2023/12/14 00:50:08;;;;;;;97.80;50.85;;;;;;;;;;6146922;23;20005;-71
2023/12/14 00:52:34;;;;;;;86.90;46.90;;;;;;;;;;6120770;23;20430;-71
2023/12/14 00:55:00;;;;;;;90.72;46.85;;;;;;;;;;6146581;23;20089;-70
2023/12/14 00:57:25;;;;;;;95.88;51.08;;;;;;;;;;6145765;23;20025;-71
2023/12/14 00:59:51;;;;;;;97.53;54.30;;;;;;;;;;6145413;23;20049;-71
2023/12/14 01:02:17;;;;;;;96.35;52.42;;;;;;;;;;6145954;23;20010;-71
2023/12/14 01:04:43;;;;;;;97.68;52.75;;;;;;;;;;6119908;23;20059;-70
2023/12/14 01:07:08;;;;;;;101.90;53.10;;;;;;;;;;6144569;23;20017;-71
2023/12/14 01:09:34;;;;;;;100.50;48.22;;;;;;;;;;6146359;23;20013;-70
2023/12/14 01:12:00;;;;;;;85.43;48.17;;;;;;;;;;6146768;23;20020;-71
2023/12/14 01:14:25;;;;;;;91.68;51.65;;;;;;;;;;6120364;23;20012;-72
2023/12/14 01:16:51;;;;;;;94.60;51.15;;;;;;;;;;6146839;23;20463;-71
2023/12/14 01:19:17;;;;;;;93.97;51.35;;;;;;;;;;6120243;23;20076;-71
2023/12/14 01:21:43;;;;;;;95.93;53.30;;;;;;;;;;6146520;23;20084;-70
2023/12/14 01:24:08;;;;;;;101.35;56.45;;;;;;;;;;6146125;23;20084;-71
2023/12/14 01:26:34;;;;;;;108.82;58.40;;;;;;;;;;6147702;23;20089;-71
2023/12/14 01:29:00;;;;;;;111.28;61.42;;;;;;;;;;6147753;23;20071;-71
2023/12/14 01:31:26;;;;;;;112.90;58.75;;;;;;;;;;6149165;23;20022;-71
2023/12/14 01:33:51;;;;;;;103.05;56.45;;;;;;;;;;6120438;23;20019;-72
2023/12/14 01:36:26;;;;;;;100.63;53.70;;;;;;;;;;6147002;23;20459;-70
2023/12/14 01:38:52;;;;;;;109.40;56.38;;;;;;;;;;6145118;23;20029;-71
2023/12/14 01:41:18;;;;;;;99.07;50.95;;;;;;;;;;6121936;23;20013;-71
2023/12/14 01:43:44;;;;;;;102.10;51.35;;;;;;;;;;6147320;23;20021;-71
2023/12/14 01:46:11;;;;;;;94.05;50.22;;;;;;;;;;6148054;23;20383;-70
2023/12/14 01:48:37;;;;;;;94.57;46.63;;;;;;;;;;6147748;23;20017;-70
2023/12/14 01:51:03;;;;;;;86.65;48.33;;;;;;;;;;6122061;23;20021;-70
2023/12/14 01:53:29;;;;;;;88.00;46.22;;;;;;;;;;6148884;23;20009;-71
2023/12/14 01:55:55;;;;;;;90.85;47.97;;;;;;;;;;6149233;23;20017;-71
2023/12/14 01:58:21;;;;;;;83.97;44.80;;;;;;;;;;6150959;23;20321;-72
2023/12/14 02:01:07;;;;;;;74.63;41.90;;;;;;;;;;6099185;23;20333;-71
2023/12/14 02:03:33;;;;;;;73.82;39.63;;;;;;;;;;6122577;23;20021;-71
2023/12/14 02:06:00;;;;;;;71.80;37.78;;;;;;;;;;6149455;23;20467;-73
2023/12/14 02:08:29;;;;;;;60.05;33.63;;;;;;;;;;6149643;23;20019;-72
2023/12/14 02:10:54;;;;;;;59.00;33.97;;;;;;;;;;6149383;23;20013;-71
2023/12/14 02:13:20;;;;;;;67.75;33.65;;;;;;;;;;6148640;23;20080;-71
2023/12/14 02:15:46;;;;;;;53.05;33.30;;;;;;;;;;6148998;23;20009;-70
2023/12/14 02:18:12;;;;;;;58.70;34.05;;;;;;;;;;6148502;23;20344;-71
2023/12/14 02:20:38;;;;;;;70.57;38.90;;;;;;;;;;6148740;23;20016;-71
2023/12/14 02:23:04;;;;;;;73.18;36.28;;;;;;;;;;6148236;23;20068;-72
2023/12/14 02:25:29;;;;;;;64.78;35.72;;;;;;;;;;6122114;23;20013;-71
2023/12/14 02:27:55;;;;;;;63.70;36.38;;;;;;;;;;6122687;23;20706;-72
2023/12/14 02:30:21;;;;;;;63.47;34.67;;;;;;;;;;6148624;23;20722;-71
2023/12/14 02:32:47;;;;;;;60.25;32.92;;;;;;;;;;6148076;23;20060;-71
2023/12/14 02:35:13;;;;;;;57.08;31.77;;;;;;;;;;6122252;23;20014;-71
2023/12/14 02:37:41;;;;;;;62.50;36.47;;;;;;;;;;6148248;23;20037;-70
2023/12/14 02:40:08;;;;;;;74.30;39.05;;;;;;;;;;6148444;23;20008;-71
2023/12/14 02:42:34;;;;;;;75.40;41.65;;;;;;;;;;6146420;23;20017;-71
2023/12/14 02:45:01;;;;;;;76.10;41.60;;;;;;;;;;6146844;23;20040;-72
2023/12/14 02:47:28;;;;;;;66.90;39.60;;;;;;;;;;6147761;23;20075;-71
2023/12/14 02:49:54;;;;;;;68.43;38.75;;;;;;;;;;6147425;23;20006;-70
2023/12/14 02:52:20;;;;;;;77.28;42.25;;;;;;;;;;6121361;23;20029;-71
2023/12/14 02:54:46;;;;;;;90.50;44.40;;;;;;;;;;6148270;23;20005;-71
2023/12/14 02:57:12;;;;;;;79.03;42.90;;;;;;;;;;6148038;23;20017;-70
2023/12/14 02:59:37;;;;;;;80.65;43.78;;;;;;;;;;6148478;23;20009;-70
2023/12/14 03:02:03;;;;;;;71.90;41.25;;;;;;;;;;6147891;23;20018;-70
2023/12/14 03:04:29;;;;;;;70.03;40.17;;;;;;;;;;6147571;23;20433;-71
2023/12/14 03:06:56;;;;;;;76.70;40.65;;;;;;;;;;6148332;23;20021;-71
2023/12/14 03:09:22;;;;;;;69.35;37.80;;;;;;;;;;6147847;23;20016;-70
2023/12/14 03:11:48;;;;;;;70.50;39.40;;;;;;;;;;6147918;23;20443;-71
2023/12/14 03:14:14;;;;;;;78.28;39.17;;;;;;;;;;6148043;23;20005;-71
2023/12/14 03:16:40;;;;;;;74.05;39.47;;;;;;;;;;6146426;23;20342;-71
2023/12/14 03:19:05;;;;;;;64.30;37.03;;;;;;;;;;6147938;23;20336;-72
2023/12/14 03:21:31;;;;;;;66.85;36.70;;;;;;;;;;6121810;23;20016;-71
2023/12/14 03:23:57;;;;;;;65.82;36.38;;;;;;;;;;6147596;23;20499;-72
2023/12/14 03:26:23;;;;;;;90.40;44.25;;;;;;;;;;6147785;23;20465;-71
2023/12/14 03:28:48;;;;;;;93.50;48.83;;;;;;;;;;6146695;23;20017;-71
2023/12/14 03:31:14;;;;;;;85.35;45.90;;;;;;;;;;6148093;23;20021;-71
2023/12/14 03:33:40;;;;;;;80.57;45.60;;;;;;;;;;6145798;23;20309;-70
2023/12/14 03:36:06;;;;;;;109.28;53.17;;;;;;;;;;6147989;23;20456;-70
2023/12/14 03:38:33;;;;;;;92.22;47.45;;;;;;;;;;6148181;23;20032;-71
2023/12/14 03:40:59;;;;;;;99.47;47.92;;;;;;;;;;6146271;23;20013;-72
2023/12/14 03:43:25;;;;;;;116.40;52.13;;;;;;;;;;6147115;23;20064;-72
2023/12/14 03:45:50;;;;;;;89.30;48.05;;;;;;;;;;6148200;23;20017;-71
2023/12/14 03:48:16;;;;;;;86.72;44.90;;;;;;;;;;6147065;23;20013;-70
2023/12/14 03:50:42;;;;;;;92.00;47.80;;;;;;;;;;6147832;23;20080;-71
2023/12/14 03:53:08;;;;;;;90.45;46.85;;;;;;;;;;6145338;23;20001;-71
2023/12/14 03:55:34;;;;;;;90.95;45.00;;;;;;;;;;6148038;23;20010;-71
2023/12/14 03:57:59;;;;;;;88.47;45.00;;;;;;;;;;6147271;23;20015;-71
2023/12/14 04:00:25;;;;;;;100.70;48.33;;;;;;;;;;6147812;23;20100;-71
2023/12/14 04:02:52;;;;;;;92.88;46.83;;;;;;;;;;6146631;23;20264;-70
2023/12/14 04:05:18;;;;;;;75.78;43.70;;;;;;;;;;6147846;23;20014;-71
2023/12/14 04:07:45;;;;;;;75.93;41.50;;;;;;;;;;6143675;23;20043;-70
2023/12/14 04:10:11;;;;;;;69.28;38.97;;;;;;;;;;6147543;23;20017;-70
2023/12/14 04:12:38;;;;;;;67.10;37.72;;;;;;;;;;6146072;23;20032;-70
2023/12/14 04:15:06;;;;;;;74.43;40.80;;;;;;;;;;6147432;23;20262;-71
2023/12/14 04:17:32;;;;;;;69.25;39.45;;;;;;;;;;6147089;23;20289;-71
2023/12/14 04:19:57;;;;;;;62.05;36.75;;;;;;;;;;6148127;23;20013;-72
2023/12/14 04:22:23;;;;;;;64.72;36.38;;;;;;;;;;6120305;23;20348;-71
2023/12/14 04:24:51;;;;;;;67.28;35.42;;;;;;;;;;6145743;23;20010;-70
2023/12/14 04:27:16;;;;;;;72.25;35.90;;;;;;;;;;6120949;23;20017;-72
2023/12/14 04:29:42;;;;;;;69.38;34.10;;;;;;;;;;6147788;23;20332;-71
2023/12/14 04:32:08;;;;;;;74.10;34.80;;;;;;;;;;6147263;23;20009;-71
2023/12/14 04:34:34;;;;;;;59.83;32.95;;;;;;;;;;6146575;23;20068;-71
2023/12/14 04:36:59;;;;;;;60.60;34.88;;;;;;;;;;6147353;23;20012;-72
2023/12/14 04:39:26;;;;;;;61.80;32.50;;;;;;;;;;6117230;23;20024;-72
2023/12/14 04:41:55;;;;;;;61.15;32.95;;;;;;;;;;6113603;23;20098;-73
2023/12/14 04:44:21;;;;;;;82.22;36.42;;;;;;;;;;6146730;23;20014;-72
2023/12/14 04:46:48;;;;;;;64.13;35.42;;;;;;;;;;6146635;23;20381;-72
2023/12/14 04:49:14;;;;;;;61.78;35.50;;;;;;;;;;6144909;23;20089;-72
2023/12/14 04:51:40;;;;;;;69.57;35.20;;;;;;;;;;6145041;23;20033;-72
2023/12/14 04:54:05;;;;;;;64.32;35.53;;;;;;;;;;6120356;23;20013;-72
2023/12/14 04:56:31;;;;;;;53.25;32.60;;;;;;;;;;6148552;23;20013;-72
2023/12/14 04:58:58;;;;;;;52.20;31.55;;;;;;;;;;6147128;23;20013;-73
2023/12/14 05:01:26;;;;;;;94.95;36.78;;;;;;;;;;6150593;23;20411;-72
2023/12/14 05:03:53;;;;;;;73.93;33.53;;;;;;;;;;6152210;23;20013;-72
2023/12/14 05:06:19;;;;;;;92.25;39.90;;;;;;;;;;6153221;23;20029;-72
2023/12/14 05:08:45;;;;;;;89.78;39.78;;;;;;;;;;6152969;23;20068;-72
2023/12/14 05:11:13;;;;;;;89.03;38.50;;;;;;;;;;6152274;23;20009;-72
2023/12/14 05:13:39;;;;;;;88.72;38.53;;;;;;;;;;6152981;23;20085;-73
2023/12/14 05:16:05;;;;;;;80.95;37.83;;;;;;;;;;6153055;23;20008;-72
2023/12/14 05:18:33;;;;;;;83.53;39.20;;;;;;;;;;6153295;23;20063;-72
2023/12/14 05:20:59;;;;;;;90.32;40.15;;;;;;;;;;6147036;23;20157;-72
2023/12/14 05:23:25;;;;;;;99.03;41.90;;;;;;;;;;6151073;23;20013;-72
2023/12/14 05:25:50;;;;;;;99.97;39.03;;;;;;;;;;6152068;23;20080;-72
2023/12/14 05:28:16;;;;;;;79.45;38.13;;;;;;;;;;6153373;23;20236;-72
2023/12/14 05:30:42;;;;;;;67.05;36.05;;;;;;;;;;6151849;23;20005;-71
2023/12/14 05:33:08;;;;;;;66.50;37.08;;;;;;;;;;6151088;23;20009;-71
2023/12/14 05:35:34;;;;;;;66.28;38.55;;;;;;;;;;6152510;23;20735;-73
2023/12/14 05:38:00;;;;;;;97.03;43.92;;;;;;;;;;6153519;23;20009;-71
2023/12/14 05:40:25;;;;;;;77.97;39.28;;;;;;;;;;6151701;23;20076;-71
2023/12/14 05:42:51;;;;;;;80.03;37.83;;;;;;;;;;6151147;23;20005;-72
2023/12/14 05:45:18;;;;;;;60.78;32.65;;;;;;;;;;6153089;23;20001;-71
2023/12/14 05:47:44;;;;;;;59.72;35.78;;;;;;;;;;6153004;23;20122;-70
2023/12/14 05:50:12;;;;;;;79.95;38.83;;;;;;;;;;6153225;23;20024;-72
2023/12/14 05:52:38;;;;;;;96.80;41.70;;;;;;;;;;6151752;23;20445;-71
2023/12/14 05:55:04;;;;;;;103.18;42.35;;;;;;;;;;6153221;23;20312;-72
2023/12/14 05:57:30;;;;;;;103.65;40.22;;;;;;;;;;6126985;23;20013;-72
2023/12/14 05:59:56;;;;;;;98.95;42.15;;;;;;;;;;6152581;23;20396;-71
2023/12/14 06:02:22;;;;;;;96.13;42.70;;;;;;;;;;6152940;23;20040;-71
2023/12/14 06:04:48;;;;;;;98.05;40.75;;;;;;;;;;6150801;23;20385;-71
2023/12/14 06:07:15;;;;;;;108.75;41.30;;;;;;;;;;6153342;23;20009;-71
2023/12/14 06:09:41;;;;;;;103.57;43.85;;;;;;;;;;6153519;23;20005;-71
2023/12/14 06:12:07;;;;;;;89.97;42.20;;;;;;;;;;6153134;23;20084;-71
2023/12/14 06:14:32;;;;;;;84.55;41.92;;;;;;;;;;6128098;23;19998;-73
2023/12/14 06:16:58;;;;;;;88.32;41.05;;;;;;;;;;6153335;23;20018;-72
2023/12/14 06:19:24;;;;;;;81.35;37.22;;;;;;;;;;6154427;23;20093;-72
2023/12/14 06:21:50;;;;;;;64.70;36.20;;;;;;;;;;6154671;23;20013;-70
2023/12/14 06:24:15;;;;;;;69.03;36.40;;;;;;;;;;6154237;23;20459;-71
2023/12/14 06:26:45;;;;;;;77.65;38.20;;;;;;;;;;6154174;23;20015;-70
2023/12/14 06:29:11;;;;;;;83.50;37.97;;;;;;;;;;6104184;23;20017;-71
2023/12/14 06:31:38;;;;;;;72.00;34.88;;;;;;;;;;6127352;23;20089;-71
2023/12/14 06:34:05;;;;;;;62.55;33.05;;;;;;;;;;6154115;23;20064;-70
2023/12/14 06:36:30;;;;;;;80.10;36.25;;;;;;;;;;6153713;23;20092;-72
2023/12/14 06:38:57;;;;;;;67.28;33.97;;;;;;;;;;6153657;23;20432;-71
2023/12/14 06:41:24;;;;;;;62.05;34.90;;;;;;;;;;6153740;23;20088;-71
2023/12/14 06:43:50;;;;;;;72.97;35.47;;;;;;;;;;6154193;23;20009;-72
2023/12/14 06:46:16;;;;;;;78.10;38.75;;;;;;;;;;6155446;23;20038;-72
2023/12/14 06:48:42;;;;;;;75.30;36.08;;;;;;;;;;6160386;23;20167;-71
2023/12/14 06:51:08;;;;;;;75.40;35.28;;;;;;;;;;6154407;23;20005;-71
2023/12/14 06:53:40;;;;;;;79.72;36.20;;;;;;;;;;6152217;23;20005;-71
2023/12/14 06:56:09;;;;;;;90.57;36.03;;;;;;;;;;6153370;23;20056;-71
2023/12/14 06:58:35;;;;;;;67.80;35.88;;;;;;;;;;6127680;23;20009;-71
2023/12/14 07:01:01;;;;;;;73.40;34.05;;;;;;;;;;6152512;23;20021;-71
2023/12/14 07:03:26;;;;;;;66.93;32.63;;;;;;;;;;6153192;23;20006;-72
2023/12/14 07:05:52;;;;;;;66.75;34.58;;;;;;;;;;6153683;23;20084;-71
2023/12/14 07:08:18;;;;;;;75.72;36.65;;;;;;;;;;6153656;23;20009;-71
2023/12/14 07:10:43;;;;;;;70.40;36.95;;;;;;;;;;6127509;23;20079;-71
2023/12/14 07:13:11;;;;;;;75.95;38.50;;;;;;;;;;6153183;23;20027;-70
2023/12/14 07:15:37;;;;;;;70.85;38.80;;;;;;;;;;6153157;23;20448;-72
2023/12/14 07:18:02;;;;;;;81.43;40.60;;;;;;;;;;6152899;23;20083;-71
2023/12/14 07:20:28;;;;;;;78.45;41.22;;;;;;;;;;6153202;23;20349;-71
2023/12/14 07:22:54;;;;;;;83.90;43.67;;;;;;;;;;6153110;23;20009;-71
2023/12/14 07:25:19;;;;;;;77.00;43.40;;;;;;;;;;6151435;23;20020;-71
2023/12/14 07:27:46;;;;;;;84.40;44.40;;;;;;;;;;6153515;23;20012;-72
2023/12/14 07:30:13;;;;;;;90.30;42.28;;;;;;;;;;6153256;23;20519;-70
2023/12/14 07:32:39;;;;;;;103.75;46.25;;;;;;;;;;6153119;23;20114;-71
2023/12/14 07:35:06;;;;;;;94.22;45.22;;;;;;;;;;6153538;23;20017;-72
2023/12/14 07:37:32;;;;;;;82.55;42.67;;;;;;;;;;6153651;23;20012;-71
2023/12/14 07:39:58;;;;;;;88.53;44.67;;;;;;;;;;6153339;23;20064;-72
2023/12/14 07:42:24;;;;;;;98.45;51.45;;;;;;;;;;6127609;23;20503;-70
2023/12/14 07:44:49;;;;;;;75.55;40.97;;;;;;;;;;6152880;23;20009;-71
2023/12/14 07:47:15;;;;;;;100.25;49.47;;;;;;;;;;6153150;23;20464;-69
2023/12/14 07:49:41;;;;;;;96.35;50.35;;;;;;;;;;6152899;23;20020;-70
2023/12/14 07:52:07;;;;;;;87.30;48.40;;;;;;;;;;6153042;23;20005;-69
2023/12/14 07:54:32;;;;;;;75.65;42.50;;;;;;;;;;6152427;23;20012;-68
2023/12/14 07:56:58;;;;;;;78.55;44.53;;;;;;;;;;6153391;23;20016;-69
2023/12/14 07:59:24;;;;;;;81.88;44.47;;;;;;;;;;6153153;23;20301;-69
2023/12/14 08:01:50;;;;;;;73.05;41.75;;;;;;;;;;6153018;23;20007;-69
2023/12/14 08:04:16;;;;;;;82.78;43.53;;;;;;;;;;6153010;23;20006;-70
2023/12/14 08:06:42;;;;;;;79.95;44.13;;;;;;;;;;6153480;23;20012;-69
2023/12/14 08:09:08;;;;;;;96.38;45.55;;;;;;;;;;6153045;23;20021;-70
2023/12/14 08:11:34;;;;;;;93.72;48.38;;;;;;;;;;6153382;23;20009;-70
2023/12/14 08:13:59;;;;;;;77.07;45.83;;;;;;;;;;6152438;23;20088;-71
2023/12/14 08:16:25;;;;;;;79.88;45.80;;;;;;;;;;6151979;23;20080;-73
2023/12/14 08:18:52;;;;;;;82.57;45.95;;;;;;;;;;6148644;23;20020;-71
2023/12/14 08:21:19;;;;;;;71.13;42.47;;;;;;;;;;6151970;23;20017;-71
2023/12/14 08:23:45;;;;;;;78.97;45.28;;;;;;;;;;6153148;23;20017;-70
2023/12/14 08:26:12;;;;;;;78.53;45.15;;;;;;;;;;6153385;23;20009;-72
2023/12/14 08:28:40;;;;;;;78.50;45.35;;;;;;;;;;6153059;23;20436;-75
2023/12/14 08:31:06;;;;;;;80.90;45.08;;;;;;;;;;6151114;23;19997;-73
2023/12/14 08:33:31;;;;;;;98.00;46.13;;;;;;;;;;6152665;23;20099;-72
2023/12/14 08:35:58;;;;;;;91.25;46.78;;;;;;;;;;6152961;23;20432;-71
2023/12/14 08:38:24;;;;;;;82.78;47.80;;;;;;;;;;6126945;23;20024;-73
2023/12/14 08:40:50;;;;;;;90.03;50.35;;;;;;;;;;6153036;23;20024;-72
2023/12/14 08:43:17;;;;;;;84.18;47.33;;;;;;;;;;6153099;23;20076;-72
2023/12/14 08:45:42;;;;;;;85.25;49.65;;;;;;;;;;6154903;23;20409;-73
2023/12/14 08:48:08;;;;;;;98.93;51.42;;;;;;;;;;6128199;23;20059;-73
2023/12/14 08:50:34;;;;;;;93.38;51.22;;;;;;;;;;6153319;23;20009;-72
2023/12/14 08:53:01;;;;;;;94.70;50.15;;;;;;;;;;6153071;23;20382;-72
2023/12/14 08:55:27;;;;;;;90.22;48.15;;;;;;;;;;6126880;23;20332;-71
2023/12/14 08:57:53;;;;;;;74.53;45.25;;;;;;;;;;6152869;23;20057;-72
2023/12/14 09:00:19;;;;;;;85.68;45.10;;;;;;;;;;6153149;23;20005;-72
2023/12/14 09:02:45;;;;;;;70.60;41.42;;;;;;;;;;6152799;23;20075;-72
2023/12/14 09:05:13;;;;;;;71.55;41.30;;;;;;;;;;6153519;23;20006;-71
2023/12/14 09:07:40;;;;;;;71.38;36.92;;;;;;;;;;6126987;23;20378;-72
2023/12/14 09:10:06;;;;;;;64.82;35.38;;;;;;;;;;6154347;23;20009;-72
2023/12/14 09:12:34;;;;;;;53.47;33.65;;;;;;;;;;6153472;23;20017;-71
2023/12/14 09:15:01;;;;;;;48.10;28.00;;;;;;;;;;6127314;23;20353;-71
2023/12/14 09:17:32;;;;;;;49.40;27.98;;;;;;;;;;6149477;23;20071;-72
2023/12/14 09:20:04;;;;;;;50.28;27.27;;;;;;;;;;6151655;23;20009;-74
2023/12/14 09:22:31;;;;;;;36.47;23.75;;;;;;;;;;6152600;23;20459;-73
2023/12/14 09:24:56;;;;;;;51.45;27.77;;;;;;;;;;6125840;23;20005;-73
2023/12/14 09:27:23;;;;;;;42.65;26.50;;;;;;;;;;6127579;23;20380;-73
2023/12/14 09:29:49;;;;;;;40.80;27.20;;;;;;;;;;6154589;23;20066;-72
2023/12/14 09:32:17;;;;;;;56.70;28.23;;;;;;;;;;6124709;23;20026;-72
2023/12/14 09:34:43;;;;;;;51.25;26.27;;;;;;;;;;6150094;23;20064;-74
2023/12/14 09:37:08;;;;;;;43.97;26.40;;;;;;;;;;6153090;23;20436;-75
2023/12/14 09:39:35;;;;;;;39.35;26.98;;;;;;;;;;6127153;23;20009;-76
2023/12/14 09:42:07;;;;;;;47.75;27.02;;;;;;;;;;6127439;23;20017;-77
2023/12/14 09:44:33;;;;;;;41.20;24.55;;;;;;;;;;6152876;23;20091;-75
2023/12/14 09:47:05;;;;;;;42.40;23.50;;;;;;;;;;6153756;23;20005;-75
2023/12/14 09:49:31;;;;;;;39.83;23.10;;;;;;;;;;6155397;23;20044;-74
2023/12/14 09:51:57;;;;;;;37.22;22.23;;;;;;;;;;6155181;23;20008;-75
2023/12/14 09:54:23;;;;;;;34.85;21.63;;;;;;;;;;6153485;23;20041;-74
2023/12/14 09:56:49;;;;;;;38.83;20.13;;;;;;;;;;6153561;23;20014;-74
2023/12/14 09:59:18;;;;;;;31.75;18.58;;;;;;;;;;6155619;23;20015;-74
2023/12/14 10:01:44;;;;;;;37.83;18.90;;;;;;;;;;6154594;23;20005;-75
2023/12/14 10:04:12;;;;;;;26.88;16.85;;;;;;;;;;6154442;23;20029;-72
2023/12/14 10:06:40;;;;;;;36.88;20.00;;;;;;;;;;6154648;23;20242;-74
2023/12/14 10:09:09;;;;;;;29.58;18.35;;;;;;;;;;6152608;23;20085;-74
2023/12/14 10:11:38;;;;;;;29.20;17.63;;;;;;;;;;6154139;23;20005;-76
2023/12/14 10:14:19;;;;;;;29.85;15.60;;;;;;;;;;6155286;23;20024;-75
2023/12/14 10:16:45;;;;;;;24.45;14.73;;;;;;;;;;6154554;23;20333;-76
2023/12/14 10:19:12;;;;;;;22.65;13.95;;;;;;;;;;6153611;23;20002;-75
2023/12/14 10:21:38;;;;;;;28.25;16.83;;;;;;;;;;6155282;23;20020;-75
2023/12/14 10:24:05;;;;;;;28.17;18.90;;;;;;;;;;6153807;23;20010;-76
2023/12/14 10:26:31;;;;;;;31.13;19.33;;;;;;;;;;6128271;23;20065;-75
2023/12/14 10:28:59;;;;;;;30.90;19.98;;;;;;;;;;6154543;23;20009;-76
2023/12/14 10:31:26;;;;;;;46.92;25.58;;;;;;;;;;6128502;23;20017;-74
2023/12/14 10:33:53;;;;;;;38.58;22.40;;;;;;;;;;6152861;23;20110;-76
2023/12/14 10:36:22;;;;;;;36.10;22.52;;;;;;;;;;6154452;23;20009;-73
2023/12/14 10:38:52;;;;;;;50.90;28.05;;;;;;;;;;6154703;23;20012;-75
2023/12/14 10:41:18;;;;;;;45.70;28.48;;;;;;;;;;6155215;23;20060;-74
2023/12/14 10:43:47;;;;;;;45.45;29.42;;;;;;;;;;6152528;23;20037;-74
2023/12/14 10:46:14;;;;;;;48.33;29.63;;;;;;;;;;6128550;23;20018;-75
2023/12/14 10:48:44;;;;;;;43.35;28.52;;;;;;;;;;6153191;23;20032;-74
2023/12/14 10:51:12;;;;;;;56.33;34.05;;;;;;;;;;6155236;23;20009;-75
2023/12/14 10:53:38;;;;;;;55.47;32.70;;;;;;;;;;6152843;23;19998;-73
2023/12/14 10:56:09;;;;;;;48.63;28.13;;;;;;;;;;6154506;23;20018;-73
2023/12/14 10:58:46;;;;;;;41.78;26.83;;;;;;;;;;6152316;23;20402;-75
2023/12/14 11:01:18;;;;;;;46.88;28.77;;;;;;;;;;6129770;23;20016;-75
2023/12/14 11:03:45;;;;;;;51.80;29.85;;;;;;;;;;6153848;23;20108;-74
2023/12/14 11:06:31;;;;;;;51.17;29.65;;;;;;;;;;6154103;23;19998;-75
2023/12/14 11:09:00;;;;;;;46.72;30.33;;;;;;;;;;6127805;23;20068;-75
2023/12/14 11:11:30;;;;;;;50.70;29.08;;;;;;;;;;6154534;23;20025;-75
2023/12/14 11:13:56;;;;;;;45.40;29.23;;;;;;;;;;6153709;23;20005;-75
2023/12/14 11:16:24;;;;;;;44.70;26.92;;;;;;;;;;6153246;23;20085;-74
2023/12/14 11:19:24;;;;;;;30.80;20.63;;;;;;;;;;6153811;23;20341;-74
2023/12/14 11:21:55;;;;;;;38.83;23.35;;;;;;;;;;6153641;23;20017;-74
2023/12/14 11:24:21;;;;;;;38.45;24.20;;;;;;;;;;6153750;23;20009;-74
2023/12/14 11:26:51;;;;;;;35.92;22.55;;;;;;;;;;6152491;23;20006;-75
2023/12/14 11:29:20;;;;;;;28.95;17.30;;;;;;;;;;6153022;23;20444;-75
2023/12/14 11:31:46;;;;;;;32.17;17.27;;;;;;;;;;6153848;23;20005;-75
2023/12/14 11:34:17;;;;;;;27.63;14.85;;;;;;;;;;6127316;23;20013;-75
2023/12/14 11:36:45;;;;;;;22.63;13.15;;;;;;;;;;6154104;23;20036;-74
2023/12/14 11:39:11;;;;;;;18.73;11.13;;;;;;;;;;6150391;23;20049;-75
2023/12/14 11:41:38;;;;;;;20.95;9.18;;;;;;;;;;6152745;23;20021;-73
2023/12/14 11:44:04;;;;;;;22.42;9.32;;;;;;;;;;6152314;23;20432;-73
2023/12/14 11:46:31;;;;;;;21.88;9.85;;;;;;;;;;6151568;23;20024;-73
2023/12/14 11:49:03;;;;;;;21.05;9.98;;;;;;;;;;6152767;23;20005;-74
2023/12/14 11:51:30;;;;;;;15.27;8.93;;;;;;;;;;6151634;23;20100;-73
2023/12/14 11:54:01;;;;;;;24.58;9.98;;;;;;;;;;6126525;23;20044;-73
2023/12/14 11:56:30;;;;;;;19.48;9.93;;;;;;;;;;6154931;23;20009;-72
2023/12/14 11:58:56;;;;;;;19.40;8.73;;;;;;;;;;6151686;23;20021;-74
2023/12/14 12:01:23;;;;;;;19.00;9.60;;;;;;;;;;6147153;23;20104;-75
2023/12/14 12:03:50;;;;;;;30.13;13.07;;;;;;;;;;6127387;23;20016;-75
2023/12/14 12:06:34;;;;;;;24.63;11.27;;;;;;;;;;6102312;23;20064;-74
2023/12/14 12:09:00;;;;;;;25.85;13.57;;;;;;;;;;6153668;23;20013;-73
2023/12/14 12:11:27;;;;;;;26.75;13.20;;;;;;;;;;6150093;23;20014;-74
2023/12/14 12:13:57;;;;;;;24.70;12.45;;;;;;;;;;6152620;23;20029;-75
2023/12/14 12:16:23;;;;;;;25.42;13.38;;;;;;;;;;6151066;23;20037;-73
2023/12/14 12:18:50;;;;;;;29.27;13.85;;;;;;;;;;6152834;23;20009;-74
2023/12/14 12:21:16;;;;;;;34.97;16.25;;;;;;;;;;6153693;23;20299;-74
2023/12/14 12:23:48;;;;;;;31.70;18.45;;;;;;;;;;6151860;23;20329;-73
2023/12/14 12:26:15;;;;;;;32.77;19.77;;;;;;;;;;6151756;23;20405;-74
2023/12/14 12:28:40;;;;;;;36.97;19.85;;;;;;;;;;6153890;23;19997;-73
2023/12/14 12:31:07;;;;;;;34.40;20.27;;;;;;;;;;6126361;23;20013;-72
2023/12/14 12:33:37;;;;;;;39.20;21.40;;;;;;;;;;6152835;23;20002;-75
2023/12/14 12:36:03;;;;;;;43.45;22.73;;;;;;;;;;6127666;23;20052;-75
2023/12/14 12:38:29;;;;;;;37.67;23.55;;;;;;;;;;6153599;23;20029;-73
2023/12/14 12:40:55;;;;;;;46.80;25.33;;;;;;;;;;6153898;23;20348;-73
2023/12/14 12:43:21;;;;;;;41.08;24.88;;;;;;;;;;6151194;23;20440;-72
2023/12/14 12:45:47;;;;;;;40.40;25.75;;;;;;;;;;6155234;23;20079;-74
2023/12/14 12:48:13;;;;;;;49.17;26.10;;;;;;;;;;6126804;23;20462;-73
2023/12/14 12:50:39;;;;;;;46.47;26.15;;;;;;;;;;6153339;23;20009;-72
2023/12/14 12:53:04;;;;;;;41.30;25.88;;;;;;;;;;6129490;23;20005;-75
2023/12/14 12:55:32;;;;;;;45.38;30.17;;;;;;;;;;6154891;23;20455;-71
2023/12/14 12:58:04;;;;;;;60.95;30.95;;;;;;;;;;6153045;23;20037;-72
2023/12/14 13:00:30;;;;;;;45.80;28.45;;;;;;;;;;6128348;23;20013;-73
2023/12/14 13:02:56;;;;;;;46.88;27.20;;;;;;;;;;6151890;23;20029;-73
2023/12/14 13:05:25;;;;;;;42.03;24.75;;;;;;;;;;6153116;23;20044;-73
2023/12/14 13:07:50;;;;;;;38.60;22.65;;;;;;;;;;6152793;23;20001;-74
2023/12/14 13:10:22;;;;;;;40.33;21.45;;;;;;;;;;6126655;23;20306;-74
2023/12/14 13:12:48;;;;;;;32.20;22.02;;;;;;;;;;6151222;23;20037;-73
2023/12/14 13:15:13;;;;;;;38.70;24.30;;;;;;;;;;6152538;23;20447;-74
2023/12/14 13:17:39;;;;;;;40.05;24.67;;;;;;;;;;6153011;23;20452;-74
2023/12/14 13:20:06;;;;;;;41.90;26.58;;;;;;;;;;6153744;23;20005;-72
2023/12/14 13:22:32;;;;;;;32.35;20.60;;;;;;;;;;6153484;23;20092;-73
2023/12/14 13:24:58;;;;;;;32.70;20.83;;;;;;;;;;6154475;23;20092;-74
2023/12/14 13:27:26;;;;;;;40.08;22.98;;;;;;;;;;6153165;23;20036;-72
2023/12/14 13:29:51;;;;;;;35.70;22.10;;;;;;;;;;6153348;23;20005;-73
2023/12/14 13:32:17;;;;;;;34.38;21.30;;;;;;;;;;6155076;23;20017;-75
2023/12/14 13:34:43;;;;;;;49.42;22.38;;;;;;;;;;6154559;23;20037;-72
2023/12/14 13:37:11;;;;;;;45.88;21.98;;;;;;;;;;6153502;23;20013;-72
2023/12/14 13:39:37;;;;;;;45.20;24.08;;;;;;;;;;6155030;23;20081;-74
2023/12/14 13:42:06;;;;;;;37.55;19.83;;;;;;;;;;6155103;23;20014;-75
2023/12/14 13:44:34;;;;;;;36.25;19.63;;;;;;;;;;6154438;23;20017;-73
2023/12/14 13:47:01;;;;;;;36.53;19.48;;;;;;;;;;6155216;23;20382;-73
2023/12/14 13:49:27;;;;;;;36.13;22.35;;;;;;;;;;6155325;23;20339;-73
2023/12/14 13:51:53;;;;;;;39.95;23.27;;;;;;;;;;6154942;23;20121;-73
2023/12/14 13:54:18;;;;;;;36.88;22.30;;;;;;;;;;6154203;23;20002;-72
2023/12/14 13:56:44;;;;;;;52.58;25.23;;;;;;;;;;6153477;23;20010;-73
2023/12/14 13:59:10;;;;;;;47.63;24.48;;;;;;;;;;6154028;23;20441;-72
2023/12/14 14:01:36;;;;;;;45.78;22.92;;;;;;;;;;6127834;23;20017;-72
2023/12/14 14:04:02;;;;;;;43.30;22.85;;;;;;;;;;6154458;23;20313;-73
2023/12/14 14:06:29;;;;;;;47.58;24.48;;;;;;;;;;6154316;23;20021;-73
2023/12/14 14:08:55;;;;;;;43.42;23.90;;;;;;;;;;6154837;23;20060;-73
2023/12/14 14:11:22;;;;;;;40.67;23.38;;;;;;;;;;6153011;23;20440;-73
2023/12/14 14:13:48;;;;;;;48.50;24.48;;;;;;;;;;6150577;23;20005;-73